Apache Creek, New Mexico
Current Conditions -  °F | °C
As of 8:55 PM on Tuesday 21 Oct 2014 (Local Time) from KJTC Reporting Station
Few Clouds Few Clouds  
Wind Chill: 54°   Ceiling: Unl
Heat Index: 54°   Visibility: 10mi
Dew Point: 41°   Wind: 3mph
Humidity: 62%   Direction: 170°S
Pressure: 30.16"   Gusts: NA
Location:  33.6665°N, 108.765°W
Report Text: KJTC 220255Z AUTO 17003KT 10SM FEW080 12/05 A3016 RMK AO2
Loading
Personal Weather Stations






























Interactive Weather Map New forecast layout! Learn more

10-Day Weather Forecast

Advertisements
Track Severe Weather on mobile